Time;durP1;ratioP1;P1;durP2;ratioP2;P2;SDS_P1;SDS_P2;PMS_P1;PMS_P2;Temp;Humidity;BMP_temperature;BMP_pressure;BME280_temperature;BME280_humidity;BME280_pressure;Samples;Min_cycle;Max_cycle;Signal;HPM_P1;HPM_P2
2022/07/25 00:00:34;;;;;;;;;9.00;9.00;;;;;29.08;36.54;100719.66;6276742;22;45394;-79
2022/07/25 00:03:00;;;;;;;;;11.50;10.00;;;;;29.05;35.98;100709.06;6277068;22;45292;-79
2022/07/25 00:05:26;;;;;;;;;9.75;9.75;;;;;28.98;36.33;100702.41;6249089;22;47681;-80
2022/07/25 00:07:51;;;;;;;;;12.50;12.50;;;;;28.89;36.53;100684.19;6250681;22;45443;-80
2022/07/25 00:10:17;;;;;;;;;13.75;12.75;;;;;28.89;36.46;100689.59;6251557;22;45410;-80
2022/07/25 00:12:42;;;;;;;;;14.50;14.00;;;;;28.91;36.65;100703.88;6276578;22;45438;-79
2022/07/25 00:15:08;;;;;;;;;13.50;12.25;;;;;28.87;36.81;100700.59;6277424;22;46349;-79
2022/07/25 00:17:35;;;;;;;;;12.50;11.25;;;;;28.75;37.15;100680.75;6275091;22;45420;-79
2022/07/25 00:20:01;;;;;;;;;12.25;11.25;;;;;28.74;37.26;100695.28;6276083;22;45386;-79
2022/07/25 00:22:26;;;;;;;;;14.25;12.75;;;;;28.66;37.26;100684.22;6277076;22;45261;-80
2022/07/25 00:24:52;;;;;;;;;12.50;12.00;;;;;28.61;37.50;100677.44;6277931;22;46375;-80
2022/07/25 00:27:17;;;;;;;;;13.50;13.50;;;;;28.52;37.75;100663.66;6278214;22;45241;-80
2022/07/25 00:29:43;;;;;;;;;15.50;15.00;;;;;28.51;37.61;100671.88;6277508;22;45258;-80
2022/07/25 00:32:09;;;;;;;;;16.25;15.50;;;;;28.49;37.76;100682.84;6279891;22;45449;-79
2022/07/25 00:34:35;;;;;;;;;19.25;18.00;;;;;28.47;37.98;100686.66;6279232;22;46373;-80
2022/07/25 00:37:00;;;;;;;;;16.75;16.50;;;;;28.34;37.94;100678.63;6279786;22;45133;-79
2022/07/25 00:39:26;;;;;;;;;18.75;17.75;;;;;28.32;38.08;100670.63;6252349;22;45198;-79
2022/07/25 00:41:51;;;;;;;;;17.50;14.75;;;;;28.31;38.24;100673.47;6251883;22;45245;-79
2022/07/25 00:44:27;;;;;;;;;11.50;11.50;;;;;28.33;38.00;100682.31;6279607;22;45308;-80
2022/07/25 00:46:55;;;;;;;;;13.00;12.00;;;;;28.20;38.09;100678.84;6279075;22;45370;-79
2022/07/25 00:49:21;;;;;;;;;16.50;14.25;;;;;28.20;38.41;100695.97;6278853;22;45379;-80
2022/07/25 00:51:48;;;;;;;;;11.50;11.00;;;;;28.16;38.18;100708.00;6277057;22;45146;-80
2022/07/25 00:54:14;;;;;;;;;14.00;12.75;;;;;28.02;38.96;100700.97;6279106;22;45633;-80
2022/07/25 00:56:40;;;;;;;;;12.50;12.00;;;;;27.98;39.09;100696.75;6277332;22;45534;-79
2022/07/25 00:59:06;;;;;;;;;12.00;11.75;;;;;27.89;38.61;100702.91;6279571;22;45244;-80
2022/07/25 01:01:31;;;;;;;;;11.75;11.75;;;;;27.73;39.40;100696.91;6279638;22;45355;-80
2022/07/25 01:03:56;;;;;;;;;3.00;3.00;;;;;27.70;39.38;100698.88;6278477;22;45370;-79
2022/07/25 01:06:22;;;;;;;;;12.50;10.25;;;;;27.61;39.58;100694.19;6279255;22;45409;-80
2022/07/25 01:08:48;;;;;;;;;10.25;9.25;;;;;27.54;39.56;100695.59;6251948;22;45228;-79
2022/07/25 01:11:14;;;;;;;;;11.75;10.50;;;;;27.57;40.22;100710.75;6279638;22;45358;-78
2022/07/25 01:13:40;;;;;;;;;10.00;9.00;;;;;27.52;39.66;100710.22;6277230;22;47921;-79
2022/07/25 01:16:06;;;;;;;;;10.25;10.25;;;;;27.36;40.10;100684.34;6279889;22;45728;-79
2022/07/25 01:18:33;;;;;;;;;12.00;10.25;;;;;27.27;40.06;100687.75;6277687;22;45399;-80
2022/07/25 01:20:59;;;;;;;;;11.25;9.25;;;;;27.28;40.44;100698.41;6251516;22;45198;-80
2022/07/25 01:23:25;;;;;;;;;8.75;8.00;;;;;27.27;40.26;100707.53;6251140;22;47179;-80
2022/07/25 01:25:50;;;;;;;;;14.50;13.00;;;;;27.17;40.65;100698.38;6279369;22;45173;-79
2022/07/25 01:28:17;;;;;;;;;9.00;9.00;;;;;27.14;40.34;100698.56;6279398;22;45169;-79
2022/07/25 01:30:42;;;;;;;;;9.50;9.50;;;;;26.96;40.85;100679.16;6279554;22;45193;-80
2022/07/25 01:33:08;;;;;;;;;9.25;7.50;;;;;27.02;40.91;100692.22;6278829;22;46642;-79
2022/07/25 01:35:33;;;;;;;;;11.25;9.75;;;;;26.97;41.26;100702.50;6251467;22;45343;-80
2022/07/25 01:37:58;;;;;;;;;8.50;7.00;;;;;26.87;41.35;100698.75;6251666;22;45281;-79
2022/07/25 01:40:24;;;;;;;;;11.00;11.00;;;;;26.80;41.07;100690.22;6250729;22;45793;-79
2022/07/25 01:42:49;;;;;;;;;12.00;10.75;;;;;26.72;41.12;100684.50;6278911;22;46636;-79
2022/07/25 01:45:15;;;;;;;;;7.25;7.25;;;;;26.67;41.62;100700.19;6251067;22;45279;-79
2022/07/25 01:47:40;;;;;;;;;13.50;9.00;;;;;26.63;41.77;100700.53;6278229;22;45334;-79
2022/07/25 01:50:06;;;;;;;;;10.00;10.00;;;;;26.53;42.06;100709.28;6279171;22;45370;-80
2022/07/25 01:52:32;;;;;;;;;8.25;8.25;;;;;26.33;41.80;100701.69;6279224;22;45231;-79
2022/07/25 01:54:57;;;;;;;;;9.00;8.00;;;;;26.33;41.97;100705.28;6251683;22;45177;-79
2022/07/25 01:57:23;;;;;;;;;7.50;6.50;;;;;26.22;42.40;100706.97;6251452;22;45224;-79
2022/07/25 01:59:48;;;;;;;;;8.25;7.50;;;;;26.18;42.17;100715.28;6279260;22;45177;-79
2022/07/25 02:02:14;;;;;;;;;7.00;7.00;;;;;25.94;41.84;100696.25;6279017;22;45354;-79
2022/07/25 02:04:39;;;;;;;;;6.00;6.00;;;;;25.94;42.17;100709.75;6279437;22;45195;-79
2022/07/25 02:07:04;;;;;;;;;7.00;7.00;;;;;25.76;42.25;100702.88;6279666;22;45262;-79
2022/07/25 02:09:30;;;;;;;;;5.00;5.00;;;;;25.69;42.23;100702.44;6277644;22;45260;-79
2022/07/25 02:11:56;;;;;;;;;5.50;5.50;;;;;25.62;42.54;100698.44;6279013;22;46198;-79
2022/07/25 02:14:22;;;;;;;;;6.50;6.00;;;;;25.62;41.96;100727.22;6278989;22;45402;-79
2022/07/25 02:16:48;;;;;;;;;5.25;5.25;;;;;25.48;42.05;100715.53;6251172;22;45343;-79
2022/07/25 02:19:13;;;;;;;;;6.00;6.00;;;;;25.28;42.07;100705.19;6278608;22;45368;-79
2022/07/25 02:21:39;;;;;;;;;4.25;4.25;;;;;25.27;42.66;100723.22;6276493;22;47204;-79
2022/07/25 02:24:04;;;;;;;;;5.00;5.00;;;;;25.11;43.11;100708.13;6251051;22;45312;-79
2022/07/25 02:26:30;;;;;;;;;4.75;4.75;;;;;24.91;42.60;100695.94;6251144;22;45364;-79
2022/07/25 02:28:55;;;;;;;;;4.50;4.50;;;;;24.88;42.47;100705.06;6278959;22;45477;-79
2022/07/25 02:31:21;;;;;;;;;5.75;5.00;;;;;24.76;42.44;100704.03;6251010;22;47397;-79
2022/07/25 02:33:46;;;;;;;;;4.67;4.67;;;;;24.72;42.74;100712.41;6278703;22;45193;-79
2022/07/25 02:36:11;;;;;;;;;4.75;4.75;;;;;24.64;43.05;100707.50;6251138;22;45200;-79
2022/07/25 02:38:37;;;;;;;;;5.00;3.75;;;;;24.64;43.08;100716.47;6278799;22;45147;-79
2022/07/25 02:41:03;;;;;;;;;4.00;3.67;;;;;24.51;42.91;100695.75;6250907;22;47102;-78
2022/07/25 02:43:28;;;;;;;;;3.00;3.00;;;;;24.55;42.77;100718.84;6279053;22;45432;-78
2022/07/25 02:45:54;;;;;;;;;4.00;3.00;;;;;24.40;42.76;100696.41;6277178;22;45269;-79
2022/07/25 02:48:19;;;;;;;;;5.00;5.00;;;;;24.36;43.07;100698.44;6250395;22;45422;-78
2022/07/25 02:50:44;;;;;;;;;5.67;5.33;;;;;24.36;43.08;100700.25;6251211;22;46981;-79
2022/07/25 02:53:10;;;;;;;;;4.33;4.33;;;;;24.43;43.00;100723.13;6250707;22;45174;-78
2022/07/25 02:55:35;;;;;;;;;2.67;2.67;;;;;24.36;42.90;100705.66;6277300;22;45183;-79
2022/07/25 02:58:01;;;;;;;;;3.00;3.00;;;;;24.26;42.69;100691.88;6279320;22;45150;-79
2022/07/25 03:00:26;;;;;;;;;4.00;4.00;;;;;24.30;43.23;100696.13;6251419;22;47080;-79
2022/07/25 03:02:52;;;;;;;;;3.33;3.33;;;;;24.43;43.07;100723.13;6250973;22;45453;-79
2022/07/25 03:05:17;;;;;;;;;4.50;4.00;;;;;24.33;42.35;100706.69;6277643;22;45374;-79
2022/07/25 03:07:44;;;;;;;;;4.67;4.33;;;;;24.41;42.79;100725.06;6278979;22;45282;-79
2022/07/25 03:10:11;;;;;;;;;4.75;4.75;;;;;24.33;42.65;100711.22;6278676;22;46285;-79
2022/07/25 03:12:37;;;;;;;;;2.00;2.00;;;;;24.28;42.96;100714.19;6278636;22;45256;-79
2022/07/25 03:15:05;;;;;;;;;3.00;3.00;;;;;24.23;42.58;100718.13;6277153;22;45221;-79
2022/07/25 03:17:31;;;;;;;;;3.00;3.00;;;;;24.19;42.51;100729.06;6276671;22;45569;-79
2022/07/25 03:19:57;;;;;;;;;3.67;3.67;;;;;24.02;42.94;100709.53;6276791;22;46455;-79
2022/07/25 03:22:23;;;;;;;;;2.67;2.67;;;;;24.12;42.81;100737.59;6278394;22;45421;-79
2022/07/25 03:24:49;;;;;;;;;3.00;2.00;;;;;23.99;43.26;100715.97;6278830;22;45374;-79
2022/07/25 03:27:15;;;;;;;;;3.00;3.00;;;;;24.08;42.71;100733.34;6275998;22;45339;-79
2022/07/25 03:29:41;;;;;;;;;2.67;2.67;;;;;24.06;42.84;100738.84;6250124;22;47904;-79
2022/07/25 03:32:07;;;;;;;;;2.00;2.00;;;;;23.87;43.08;100714.00;6250628;22;45198;-79
2022/07/25 03:34:33;;;;;;;;;4.00;2.67;;;;;23.95;42.99;100733.22;6251005;22;45134;-79
2022/07/25 03:36:59;;;;;;;;;3.00;3.00;;;;;23.89;42.92;100728.22;6250590;22;45392;-79
2022/07/25 03:39:25;;;;;;;;;1.67;1.67;;;;;23.92;43.18;100742.38;6278647;22;46492;-79
2022/07/25 03:41:51;;;;;;;;;2.67;2.67;;;;;23.84;43.35;100736.56;6278610;22;45172;-79
2022/07/25 03:44:18;;;;;;;;;2.67;2.67;;;;;23.85;43.34;100754.44;6250817;22;45377;-78
2022/07/25 03:46:43;;;;;;;;;2.67;2.67;;;;;23.82;43.32;100756.41;6276117;22;45364;-79
2022/07/25 03:49:08;;;;;;;;;2.67;2.67;;;;;23.74;43.24;100748.81;6278588;22;45376;-78
2022/07/25 03:51:34;;;;;;;;;3.67;2.67;;;;;23.72;43.12;100765.03;6278629;22;45378;-79
2022/07/25 03:54:07;;;;;;;;;3.33;3.00;;;;;23.69;43.52;100769.69;6279277;22;45267;-78
2022/07/25 03:56:39;;;;;;;;;2.33;2.00;;;;;23.67;42.97;100774.28;6250746;22;45344;-79
2022/07/25 03:59:05;;;;;;;;;3.00;2.00;;;;;23.54;43.24;100764.25;6250444;22;48169;-79
2022/07/25 04:01:31;;;;;;;;;2.00;2.00;;;;;23.50;43.48;100765.38;6250221;22;46092;-79
2022/07/25 04:03:56;;;;;;;;;3.00;2.00;;;;;23.54;43.36;100780.38;6278387;22;45158;-79
2022/07/25 04:06:22;;;;;;;;;2.00;2.00;;;;;23.52;43.32;100778.72;6278370;22;45382;-79
2022/07/25 04:08:48;;;;;;;;;2.00;2.00;;;;;23.49;44.02;100777.06;6250472;22;45912;-80
2022/07/25 04:11:14;;;;;;;;;2.33;2.00;;;;;23.37;43.90;100755.44;6250390;22;45317;-79
2022/07/25 04:13:42;;;;;;;;;2.00;2.00;;;;;23.42;43.28;100764.09;6278431;22;45423;-79
2022/07/25 04:16:08;;;;;;;;;2.00;2.00;;;;;23.46;43.67;100769.19;6276487;22;45791;-79
2022/07/25 04:18:34;;;;;;;;;3.00;3.00;;;;;23.45;43.63;100788.97;6277704;22;46180;-79
2022/07/25 04:20:59;;;;;;;;;2.00;2.00;;;;;23.48;43.82;100788.78;6278132;22;45212;-80
2022/07/25 04:23:27;;;;;;;;;2.33;2.00;;;;;23.36;44.02;100772.50;6250369;22;45164;-79
2022/07/25 04:25:53;;;;;;;;;1.50;1.50;;;;;23.32;44.01;100775.34;6278034;22;45511;-79
2022/07/25 04:28:21;;;;;;;;;2.00;2.00;;;;;23.28;43.62;100765.75;6248466;22;47812;-79
2022/07/25 04:30:50;;;;;;;;;2.00;2.00;;;;;23.35;43.62;100785.06;6278070;22;45157;-79
2022/07/25 04:33:16;;;;;;;;;1.00;1.00;;;;;23.29;44.04;100778.22;6277934;22;45237;-79
2022/07/25 04:35:42;;;;;;;;;2.25;2.25;;;;;23.36;44.20;100797.53;6276891;22;45400;-79
2022/07/25 04:38:08;;;;;;;;;2.50;2.50;;;;;23.18;44.39;100769.03;6251068;22;47588;-80
2022/07/25 04:40:33;;;;;;;;;3.00;2.00;;;;;23.32;44.47;100798.66;6280662;22;45306;-79
2022/07/25 04:42:59;;;;;;;;;3.00;3.00;;;;;23.27;44.94;100790.00;6252395;22;45591;-79
2022/07/25 04:45:24;;;;;;;;;2.33;2.33;;;;;23.11;45.05;100765.81;6280198;22;45355;-79
2022/07/25 04:47:49;;;;;;;;;4.00;2.00;;;;;23.21;45.51;100790.34;6251219;22;47222;-78
2022/07/25 04:50:15;;;;;;;;;2.00;2.00;;;;;23.29;45.27;100799.72;6279554;22;45415;-79
2022/07/25 04:52:41;;;;;;;;;2.67;1.67;;;;;23.32;45.19;100804.91;6251831;22;45284;-78
2022/07/25 04:55:07;;;;;;;;;2.67;2.67;;;;;23.24;45.67;100784.81;6279521;22;45510;-79
2022/07/25 04:57:32;;;;;;;;;2.67;2.67;;;;;23.22;45.78;100775.94;6251141;22;46771;-79
2022/07/25 04:59:58;;;;;;;;;2.00;1.33;;;;;23.36;45.72;100807.41;6251548;22;45221;-80
2022/07/25 05:02:24;;;;;;;;;3.00;2.00;;;;;23.22;46.24;100795.63;6277371;22;45741;-79
2022/07/25 05:04:50;;;;;;;;;3.00;2.00;;;;;23.23;46.84;100805.44;6279371;22;45489;-79
2022/07/25 05:07:15;;;;;;;;;3.00;3.00;;;;;23.22;46.98;100800.13;6279241;22;45279;-79
2022/07/25 05:09:41;;;;;;;;;2.33;2.00;;;;;23.07;47.13;100773.19;6279563;22;45228;-79
2022/07/25 05:12:07;;;;;;;;;3.00;3.00;;;;;23.03;47.10;100773.44;6279661;22;45291;-79
2022/07/25 05:14:32;;;;;;;;;2.67;2.67;;;;;23.16;47.35;100804.03;6279663;22;45490;-79
2022/07/25 05:16:58;;;;;;;;;3.00;3.00;;;;;23.24;47.66;100807.16;6279437;22;46209;-79
2022/07/25 05:19:24;;;;;;;;;1.00;1.00;;;;;23.23;47.53;100813.50;6279188;22;45387;-80
2022/07/25 05:21:49;;;;;;;;;3.00;2.00;;;;;23.16;47.76;100800.47;6276972;22;45304;-79
2022/07/25 05:24:15;;;;;;;;;2.00;2.00;;;;;23.13;47.71;100798.81;6279461;22;45429;-79
2022/07/25 05:26:40;;;;;;;;;2.00;2.00;;;;;23.14;47.82;100805.94;6276896;22;47054;-80
2022/07/25 05:29:05;;;;;;;;;2.00;2.00;;;;;23.22;47.92;100818.94;6279524;22;45367;-80
2022/07/25 05:31:31;;;;;;;;;3.00;3.00;;;;;23.17;48.33;100813.81;6279420;22;45330;-79
2022/07/25 05:33:56;;;;;;;;;2.67;2.67;;;;;23.25;48.33;100830.38;6279063;22;45339;-80
2022/07/25 05:36:21;;;;;;;;;3.00;1.67;;;;;23.11;48.38;100808.78;6251374;22;47219;-80
2022/07/25 05:38:47;;;;;;;;;3.00;3.00;;;;;23.20;48.54;100831.56;6251509;22;45125;-80
2022/07/25 05:41:12;;;;;;;;;3.67;3.67;;;;;23.22;48.55;100837.75;6279575;22;45449;-80
2022/07/25 05:43:38;;;;;;;;;3.00;2.67;;;;;23.19;48.40;100835.22;6279205;22;45141;-80
2022/07/25 05:46:04;;;;;;;;;2.75;1.25;;;;;23.05;48.22;100819.88;6251237;22;47154;-79
2022/07/25 05:48:30;;;;;;;;;3.67;3.67;;;;;23.07;48.63;100817.97;6277952;22;45584;-80
2022/07/25 05:50:57;;;;;;;;;3.50;3.25;;;;;23.06;48.74;100830.50;6251175;22;45425;-79
2022/07/25 05:53:23;;;;;;;;;3.75;2.00;;;;;22.98;48.83;100826.50;6250866;22;45389;-79
2022/07/25 05:55:49;;;;;;;;;3.67;2.00;;;;;22.94;48.83;100836.53;6278589;22;46071;-79
2022/07/25 05:58:14;;;;;;;;;2.00;2.00;;;;;22.94;49.30;100843.72;6278885;22;45397;-79
2022/07/25 06:00:40;;;;;;;;;1.00;1.00;;;;;22.89;49.33;100830.53;6276951;22;45699;-79
2022/07/25 06:03:05;;;;;;;;;2.33;2.33;;;;;22.92;48.88;100832.19;6250961;22;45521;-79
2022/07/25 06:05:31;;;;;;;;;1.67;1.67;;;;;22.87;49.75;100830.59;6276925;22;46741;-79
2022/07/25 06:07:56;;;;;;;;;1.33;1.33;;;;;23.03;49.41;100846.78;6250731;22;45300;-79
2022/07/25 06:10:23;;;;;;;;;4.00;3.00;;;;;22.96;49.68;100841.81;6279210;22;45241;-79
2022/07/25 06:12:48;;;;;;;;;2.00;2.00;;;;;22.99;49.71;100839.88;6278954;22;45474;-79
2022/07/25 06:15:14;;;;;;;;;3.33;3.33;;;;;22.97;49.88;100833.72;6278683;22;45342;-79
2022/07/25 06:17:39;;;;;;;;;2.67;2.67;;;;;23.02;49.32;100845.06;6278709;22;45126;-80
2022/07/25 06:20:05;;;;;;;;;2.33;2.33;;;;;22.95;49.35;100838.25;6279383;22;45172;-81
2022/07/25 06:22:33;;;;;;;;;5.67;4.67;;;;;23.02;49.68;100855.81;6278370;22;45498;-80
2022/07/25 06:25:05;;;;;;;;;1.67;1.67;;;;;23.03;49.64;100852.16;6277380;22;46164;-83
2022/07/25 06:27:31;;;;;;;;;3.00;3.00;;;;;23.10;49.62;100858.94;6277710;22;45927;-82
2022/07/25 06:29:58;;;;;;;;;3.00;3.00;;;;;23.12;50.00;100850.78;6279647;22;45166;-85
2022/07/25 06:32:24;;;;;;;;;4.00;4.00;;;;;23.06;49.27;100833.19;6278415;22;45303;-82
2022/07/25 06:34:49;;;;;;;;;2.00;2.00;;;;;23.13;49.73;100859.75;6276240;22;48012;-83
2022/07/25 06:37:15;;;;;;;;;3.00;2.67;;;;;23.17;49.62;100853.25;6250825;22;45366;-83
2022/07/25 06:39:40;;;;;;;;;2.00;2.00;;;;;23.20;49.67;100859.34;6278727;22;45310;-83
2022/07/25 06:42:06;;;;;;;;;3.33;3.33;;;;;23.23;49.58;100874.38;6278732;22;45537;-82
2022/07/25 06:44:32;;;;;;;;;2.00;2.00;;;;;23.24;49.76;100881.50;6276324;22;47711;-81
2022/07/25 06:46:59;;;;;;;;;4.00;3.00;;;;;23.26;49.61;100888.53;6249598;22;45398;-82
2022/07/25 06:49:24;;;;;;;;;3.00;3.00;;;;;23.16;50.15;100886.44;6278504;22;45200;-82
2022/07/25 06:51:50;;;;;;;;;3.00;3.00;;;;;23.10;50.73;100887.63;6250454;22;45173;-83
2022/07/25 06:54:17;;;;;;;;;3.00;3.00;;;;;23.01;50.61;100886.28;6250697;22;46558;-81
2022/07/25 06:56:43;;;;;;;;;3.67;2.00;;;;;22.94;50.68;100881.31;6276608;22;45326;-77
2022/07/25 06:59:08;;;;;;;;;2.00;2.00;;;;;22.98;50.50;100888.28;6276690;22;45260;-78
2022/07/25 07:01:34;;;;;;;;;2.00;2.00;;;;;22.86;51.03;100890.63;6278508;22;45231;-78
2022/07/25 07:04:00;;;;;;;;;4.75;4.75;;;;;22.97;50.97;100899.97;6277931;22;45512;-78
2022/07/25 07:06:25;;;;;;;;;3.33;2.67;;;;;22.93;50.98;100893.84;6278623;22;45303;-79
2022/07/25 07:08:51;;;;;;;;;3.00;2.75;;;;;23.00;51.37;100898.00;6278637;22;45353;-78
2022/07/25 07:11:16;;;;;;;;;3.50;3.00;;;;;22.99;50.73;100887.31;6276373;22;45368;-79
2022/07/25 07:13:41;;;;;;;;;3.00;3.00;;;;;22.98;51.19;100899.88;6278391;22;45198;-78
2022/07/25 07:16:07;;;;;;;;;2.00;2.00;;;;;22.98;50.90;100899.00;6276724;22;45308;-78
2022/07/25 07:18:32;;;;;;;;;3.00;2.33;;;;;23.04;51.06;100899.56;6278446;22;45186;-78
2022/07/25 07:20:58;;;;;;;;;4.00;4.00;;;;;22.98;51.07;100889.13;6251153;22;45225;-78
2022/07/25 07:23:23;;;;;;;;;2.67;2.67;;;;;23.18;51.24;100914.09;6276844;22;47144;-81
2022/07/25 07:25:49;;;;;;;;;2.00;1.00;;;;;23.06;51.27;100892.28;6250779;22;45241;-79
2022/07/25 07:28:15;;;;;;;;;3.67;2.00;;;;;23.22;51.40;100913.81;6278394;22;45379;-77
2022/07/25 07:30:40;;;;;;;;;2.33;2.33;;;;;23.14;51.49;100899.94;6250263;22;45344;-79
2022/07/25 07:33:06;;;;;;;;;1.67;1.67;;;;;23.25;51.17;100919.03;6277718;22;46521;-78
2022/07/25 07:35:31;;;;;;;;;3.00;3.00;;;;;23.11;51.45;100898.28;6274830;22;45709;-76
2022/07/25 07:37:56;;;;;;;;;3.33;3.33;;;;;23.12;51.40;100896.44;6276284;22;45332;-79
2022/07/25 07:40:22;;;;;;;;;0.67;0.67;;;;;23.21;51.60;100912.09;6250286;22;45442;-80
2022/07/25 07:42:49;;;;;;;;;3.00;2.00;;;;;23.18;52.03;100906.88;6250031;22;45830;-80
2022/07/25 07:45:18;;;;;;;;;4.33;1.33;;;;;23.38;51.79;100937.19;6250252;22;45514;-83
2022/07/25 07:47:46;;;;;;;;;2.00;1.67;;;;;23.42;51.48;100917.25;6277666;22;45437;-83
2022/07/25 07:50:13;;;;;;;;;2.00;2.00;;;;;23.36;51.58;100893.41;6275757;22;45422;-83
2022/07/25 07:52:38;;;;;;;;;3.00;2.00;;;;;23.50;51.89;100902.44;6275211;22;48120;-82
2022/07/25 07:57:48;;;;;;;;;4.00;2.67;;;;;23.68;51.27;100923.88;6278023;22;45312;-82
2022/07/25 08:00:15;;;;;;;;;2.00;2.00;;;;;23.79;51.31;100937.63;6277899;22;45230;-79
2022/07/25 08:02:49;;;;;;;;;1.00;1.00;;;;;23.95;51.18;100945.69;6249587;22;47387;-75
2022/07/25 08:05:30;;;;;;;;;2.33;2.00;;;;;24.07;51.06;100942.31;6275713;22;45315;-74
2022/07/25 08:07:56;;;;;;;;;1.67;1.33;;;;;24.22;50.46;100951.34;6275384;22;45481;-76
2022/07/25 08:10:27;;;;;;;;;1.00;1.00;;;;;24.27;50.88;100933.09;6277698;22;45438;-76
2022/07/25 08:12:52;;;;;;;;;1.00;1.00;;;;;24.49;49.97;100940.81;6276015;22;46802;-76
2022/07/25 08:15:19;;;;;;;;;2.67;2.00;;;;;24.64;49.59;100948.00;6251009;22;45183;-77
2022/07/25 08:17:46;;;;;;;;;1.33;1.00;;;;;24.70;49.48;100952.16;6279144;22;45208;-77
2022/07/25 08:20:12;;;;;;;;;1.00;1.00;;;;;24.61;49.03;100921.22;6276886;22;46053;-77
2022/07/25 08:22:41;;;;;;;;;2.33;2.00;;;;;24.70;49.79;100940.50;6276500;22;47157;-77
2022/07/25 08:25:13;;;;;;;;;2.67;1.00;;;;;24.90;49.62;100937.47;6250960;22;45371;-76
2022/07/25 08:27:39;;;;;;;;;3.33;2.33;;;;;25.10;48.91;100947.06;6278945;22;45399;-77
2022/07/25 08:30:06;;;;;;;;;1.33;1.33;;;;;25.30;48.80;100954.78;6251015;22;45287;-77
2022/07/25 08:32:31;;;;;;;;;2.33;1.00;;;;;25.35;48.29;100938.34;6278673;22;45335;-77
2022/07/25 08:34:57;;;;;;;;;1.00;1.00;;;;;25.39;47.97;100937.16;6279071;22;45193;-76
2022/07/25 08:37:22;;;;;;;;;1.00;1.00;;;;;25.52;48.08;100945.34;6279120;22;45164;-77
2022/07/25 08:39:49;;;;;;;;;1.00;1.00;;;;;25.68;47.56;100947.94;6276800;22;45259;-77
2022/07/25 08:42:16;;;;;;;;;1.00;1.00;;;;;25.74;47.93;100953.84;6276334;22;46559;-77
2022/07/25 08:44:57;;;;;;;;;2.33;2.00;;;;;25.80;47.45;100949.00;6251254;22;46115;-77
2022/07/25 08:47:23;;;;;;;;;2.00;2.00;;;;;25.91;47.72;100949.22;6278217;22;45375;-78
2022/07/25 08:49:49;;;;;;;;;1.67;1.67;;;;;26.06;47.16;100948.22;6276460;22;45257;-77
2022/07/25 08:52:14;;;;;;;;;1.67;1.67;;;;;26.14;47.00;100935.09;6278394;22;45093;-78
2022/07/25 08:54:41;;;;;;;;;6.00;6.00;;;;;26.35;46.58;100954.38;6274317;22;45257;-78
2022/07/25 08:57:06;;;;;;;;;4.00;2.00;;;;;26.33;46.27;100944.63;6276652;22;45350;-79
2022/07/25 08:59:32;;;;;;;;;2.00;1.00;;;;;26.31;46.10;100950.16;6276257;22;45355;-80
2022/07/25 09:02:01;;;;;;;;;2.33;2.33;;;;;26.18;46.34;100960.91;6249562;22;47041;-77
2022/07/25 09:04:28;;;;;;;;;1.00;1.00;;;;;26.10;46.34;100959.69;6276874;22;45470;-79
2022/07/25 09:06:54;;;;;;;;;1.00;1.00;;;;;26.08;45.99;100959.75;6248884;22;45126;-79
2022/07/25 09:09:29;;;;;;;;;1.00;1.00;;;;;26.09;46.29;100966.00;6248895;22;45305;-80
2022/07/25 09:11:54;;;;;;;;;1.33;1.33;;;;;26.10;46.45;100971.31;6249292;22;47306;-80
2022/07/25 09:14:20;;;;;;;;;3.00;2.00;;;;;26.24;46.47;100951.53;6277607;22;45219;-79
2022/07/25 09:16:45;;;;;;;;;2.00;1.00;;;;;26.35;45.80;100964.31;6274519;22;45333;-81
2022/07/25 09:19:15;;;;;;;;;2.00;2.00;;;;;26.47;45.55;100977.00;6248841;22;45437;-80
2022/07/25 09:21:43;;;;;;;;;2.00;2.00;;;;;26.57;45.58;100993.47;6248423;22;47131;-80
2022/07/25 09:24:15;;;;;;;;;2.00;2.00;;;;;26.53;45.03;100983.84;6248782;22;45233;-83
2022/07/25 09:26:48;;;;;;;;;2.00;2.00;;;;;26.54;45.33;100986.47;6274535;22;45709;-79
2022/07/25 09:29:30;;;;;;;;;1.00;1.00;;;;;26.57;45.24;100986.25;6276700;22;45327;-78
2022/07/25 09:31:56;;;;;;;;;1.00;1.00;;;;;26.63;45.09;100987.69;6276779;22;46443;-78
2022/07/25 09:34:28;;;;;;;;;1.00;1.00;;;;;26.69;44.82;101003.47;6274791;22;45662;-77
2022/07/25 09:36:54;;;;;;;;;2.00;2.00;;;;;26.73;44.77;101005.00;6276387;22;45225;-78
2022/07/25 09:39:19;;;;;;;;;1.33;1.33;;;;;26.72;45.15;100987.03;6276585;22;45340;-77
2022/07/25 09:41:45;;;;;;;;;3.00;3.00;;;;;26.94;44.57;101012.59;6248867;22;47040;-76
2022/07/25 09:44:21;;;;;;;;;2.00;2.00;;;;;27.13;44.46;101001.41;6275062;22;45296;-77
2022/07/25 09:46:47;;;;;;;;;1.33;1.33;;;;;27.31;43.60;101002.00;6275900;22;45628;-78
2022/07/25 09:49:13;;;;;;;;;2.00;1.00;;;;;27.25;43.32;100993.34;6277343;22;45263;-80
2022/07/25 09:51:40;;;;;;;;;2.00;2.00;;;;;27.17;43.12;100998.41;6249216;22;47053;-77
2022/07/25 09:54:05;;;;;;;;;3.00;2.67;;;;;27.02;43.30;101011.13;6248973;22;45395;-81
2022/07/25 09:56:31;;;;;;;;;3.00;3.00;;;;;26.83;43.53;101010.63;6274033;22;45469;-78
2022/07/25 09:59:00;;;;;;;;;1.33;1.33;;;;;26.68;43.95;101000.84;6275913;22;45453;-79
2022/07/25 10:01:33;;;;;;;;;1.00;1.00;;;;;26.71;44.28;101019.59;6274544;22;47537;-78
2022/07/25 10:04:20;;;;;;;;;1.00;1.00;;;;;26.76;44.38;101018.31;6274738;22;45242;-80
2022/07/25 10:06:56;;;;;;;;;2.00;2.00;;;;;26.89;44.35;101009.34;6248498;22;45295;-80
2022/07/25 10:09:22;;;;;;;;;1.00;1.00;;;;;26.94;44.29;101007.19;6276980;22;45713;-78
2022/07/25 10:12:09;;;;;;;;;2.00;2.00;;;;;27.03;44.37;101025.50;6274929;22;46478;-82
2022/07/25 10:14:36;;;;;;;;;4.00;2.67;;;;;27.01;44.33;101022.91;6273939;22;45521;-82
2022/07/25 10:17:02;;;;;;;;;2.00;2.00;;;;;26.96;44.02;101016.06;6248158;22;45442;-79
2022/07/25 10:19:36;;;;;;;;;3.67;2.67;;;;;26.95;43.86;101031.44;6274153;22;45395;-81
2022/07/25 10:22:02;;;;;;;;;1.67;1.67;;;;;26.80;44.02;101019.81;6273990;22;47065;-81
2022/07/25 10:24:37;;;;;;;;;2.00;2.00;;;;;26.78;44.46;101023.59;6276105;22;45446;-82
2022/07/25 10:27:08;;;;;;;;;4.00;2.00;;;;;26.70;44.27;101023.22;6249215;22;45232;-82
2022/07/25 10:29:37;;;;;;;;;2.00;2.00;;;;;26.72;44.29;101029.41;6276653;22;45643;-81
2022/07/25 10:32:11;;;;;;;;;3.00;3.00;;;;;26.67;44.34;101020.75;6248257;22;47321;-81
2022/07/25 10:34:37;;;;;;;;;2.00;2.00;;;;;26.72;44.36;101030.28;6274823;22;45351;-81
2022/07/25 10:37:17;;;;;;;;;1.67;1.67;;;;;26.71;44.46;101027.69;6277656;22;45267;-81
2022/07/25 10:39:44;;;;;;;;;2.00;2.00;;;;;26.74;44.20;101035.59;6278433;22;45371;-84
2022/07/25 10:42:15;;;;;;;;;3.33;2.33;;;;;26.77;44.76;101040.78;6279539;22;45546;-87
2022/07/25 10:44:49;;;;;;;;;3.00;3.00;;;;;26.71;44.33;101035.78;6255509;22;45257;-81
2022/07/25 10:47:16;;;;;;;;;3.33;3.33;;;;;26.63;44.53;101038.13;6256419;22;45262;-86
2022/07/25 10:49:44;;;;;;;;;2.00;2.00;;;;;26.57;44.27;101039.38;6256028;22;45390;-85
2022/07/25 10:52:16;;;;;;;;;4.00;3.00;;;;;26.51;44.33;101043.34;6280938;22;47162;-86
2022/07/25 10:54:53;;;;;;;;;2.67;2.00;;;;;26.50;44.49;101055.09;6251769;22;45189;-88
2022/07/25 10:57:18;;;;;;;;;8.25;8.00;;;;;26.42;44.79;101043.94;6249451;22;45445;-88
2022/07/25 10:59:45;;;;;;;;;2.33;2.00;;;;;26.56;45.09;101057.44;6251586;22;45602;-83
2022/07/25 11:02:48;;;;;;;;;;;;;;;;;;;;;
2022/07/25 11:05:17;;;;;;;;;2.00;2.00;;;;;26.61;44.20;101041.78;6278404;22;71917;-90
2022/07/25 11:08:20;;;;;;;;;3.00;1.33;;;;;26.72;43.83;101051.03;6252508;22;45139;-92
2022/07/25 11:10:52;;;;;;;;;2.00;1.00;;;;;26.76;43.64;101044.47;6233442;22;45470;-90
2022/07/25 11:17:34;;;;;;;;;;;;;;;;;;;;;
2022/07/25 11:21:37;;;;;;;;;5.00;4.00;;;;;26.85;43.39;101038.41;6183149;23;67289;-88
2022/07/25 11:27:14;;;;;;;;;;;;;;;;;;;;;
2022/07/25 11:29:42;;;;;;;;;12.75;11.75;;;;;26.94;42.54;101055.84;6277271;22;72393;-87
2022/07/25 11:35:06;;;;;;;;;7.00;6.00;;;;;27.16;41.99;101037.22;6261221;22;45487;-86
2022/07/25 11:37:40;;;;;;;;;3.00;3.00;;;;;27.27;41.14;101037.38;6278009;22;46549;-85
2022/07/25 11:41:02;;;;;;;;;;;;;;;;;;;;;
2022/07/25 11:47:32;;;;;;;;;2.00;1.33;;;;;27.18;40.21;101037.13;6207257;22;46283;-88